GFA173 OBBI-OEJN
Flight info
| Callsign | GFA173 |
|---|---|
| Flight time | N/A |
| Altitude | 36000 |
| Route | BHR B457 NARMI N112 GETOT Q212 KSA G782 VEMEM |
| Aircraft | A320/M-SDE3FGHIRWY/LB1 |
Departure
| Time | 2026-05-01 14:10 |
|---|---|
| Airport | Bahrain International Airport (OBBI) |
Arrival
| Time | N/A |
|---|---|
| Airport | King Abdulaziz International Airport (OEJN) |
| Time | Latitude | Longitude | Altitude | Speed | Heading |
|---|---|---|---|---|---|
| 2026-05-01 13:43 | 26.26924 | 50.62844 | 21 ft | 0 kts | 213° |
| 2026-05-01 13:57 | 26.26937 | 50.62854 | 23 ft | 2 kts | 221° |
| 2026-05-01 13:57 | 26.26950 | 50.62866 | 22 ft | 2 kts | 224° |
| 2026-05-01 13:58 | 26.26961 | 50.62879 | 23 ft | 2 kts | 231° |
| 2026-05-01 13:58 | 26.26971 | 50.62894 | 23 ft | 2 kts | 240° |
| 2026-05-01 13:58 | 26.26978 | 50.62910 | 24 ft | 2 kts | 251° |
| 2026-05-01 13:58 | 26.26983 | 50.62928 | 25 ft | 2 kts | 263° |
| 2026-05-01 13:59 | 26.26984 | 50.62946 | 25 ft | 2 kts | 275° |
| 2026-05-01 13:59 | 26.26982 | 50.62964 | 25 ft | 2 kts | 285° |
| 2026-05-01 13:59 | 26.26977 | 50.62981 | 22 ft | 2 kts | 294° |
| 2026-05-01 13:59 | 26.26970 | 50.62997 | 22 ft | 2 kts | 300° |
| 2026-05-01 14:00 | 26.26967 | 50.63002 | 23 ft | 0 kts | 302° |
| 2026-05-01 14:01 | 26.26978 | 50.62984 | 23 ft | 7 kts | 302° |
| 2026-05-01 14:02 | 26.27009 | 50.62930 | 23 ft | 9 kts | 303° |
| 2026-05-01 14:02 | 26.27057 | 50.62882 | 22 ft | 10 kts | 355° |
| 2026-05-01 14:02 | 26.27108 | 50.62941 | 22 ft | 17 kts | 90° |
| 2026-05-01 14:02 | 26.27033 | 50.63092 | 21 ft | 25 kts | 123° |
| 2026-05-01 14:03 | 26.26934 | 50.63263 | 20 ft | 27 kts | 123° |
| 2026-05-01 14:03 | 26.26831 | 50.63440 | 19 ft | 28 kts | 121° |
| 2026-05-01 14:03 | 26.26721 | 50.63632 | 21 ft | 30 kts | 122° |
| 2026-05-01 14:03 | 26.26609 | 50.63828 | 21 ft | 31 kts | 122° |
| 2026-05-01 14:04 | 26.26493 | 50.64030 | 23 ft | 32 kts | 122° |
| 2026-05-01 14:04 | 26.26373 | 50.64238 | 20 ft | 33 kts | 123° |
| 2026-05-01 14:04 | 26.26246 | 50.64456 | 19 ft | 34 kts | 123° |
| 2026-05-01 14:04 | 26.26157 | 50.64605 | 21 ft | 34 kts | 124° |
| 2026-05-01 14:05 | 26.26017 | 50.64875 | 21 ft | 17 kts | 91° |
| 2026-05-01 14:05 | 26.26028 | 50.64935 | 20 ft | 0 kts | 64° |
| 2026-05-01 14:08 | 26.26029 | 50.64937 | 20 ft | 1 kts | 63° |
| 2026-05-01 14:08 | 26.26041 | 50.64955 | 21 ft | 4 kts | 50° |
| 2026-05-01 14:09 | 26.26077 | 50.64983 | 19 ft | 10 kts | 32° |
| 2026-05-01 14:09 | 26.26152 | 50.64979 | 18 ft | 13 kts | 302° |
| 2026-05-01 14:09 | 26.26163 | 50.64960 | 18 ft | 0 kts | 302° |
| 2026-05-01 14:09 | 26.26175 | 50.64938 | 18 ft | 17 kts | 302° |
| 2026-05-01 14:10 | 26.26383 | 50.64581 | 14 ft | 89 kts | 302° |
| 2026-05-01 14:10 | 26.26819 | 50.63819 | 17 ft | 141 kts | 303° |
| 2026-05-01 14:10 | 26.27423 | 50.62785 | 270 ft | 164 kts | 301° |
| 2026-05-01 14:10 | 26.27979 | 50.61723 | 972 ft | 159 kts | 304° |
| 2026-05-01 14:11 | 26.28539 | 50.60648 | 1627 ft | 161 kts | 304° |
| 2026-05-01 14:11 | 26.29770 | 50.58203 | 2157 ft | 203 kts | 303° |
| 2026-05-01 14:11 | 26.30437 | 50.56744 | 2342 ft | 229 kts | 289° |
| 2026-05-01 14:12 | 26.30576 | 50.54875 | 2638 ft | 256 kts | 271° |
| 2026-05-01 14:12 | 26.30542 | 50.52820 | 3163 ft | 270 kts | 271° |
| 2026-05-01 14:12 | 26.30490 | 50.50712 | 3968 ft | 273 kts | 269° |
| 2026-05-01 14:12 | 26.30434 | 50.48588 | 4798 ft | 274 kts | 269° |
| 2026-05-01 14:13 | 26.30380 | 50.46475 | 5734 ft | 271 kts | 269° |
| 2026-05-01 14:13 | 26.30346 | 50.45092 | 6357 ft | 269 kts | 269° |
| 2026-05-01 14:13 | 26.30281 | 50.42344 | 7486 ft | 267 kts | 269° |
| 2026-05-01 14:13 | 26.30233 | 50.40271 | 8291 ft | 268 kts | 269° |
| 2026-05-01 14:14 | 26.30184 | 50.38183 | 9078 ft | 270 kts | 268° |
| 2026-05-01 14:14 | 26.30136 | 50.36084 | 9865 ft | 271 kts | 268° |
| 2026-05-01 14:14 | 26.30089 | 50.33967 | 10300 ft | 286 kts | 268° |
| 2026-05-01 14:14 | 26.30207 | 50.31662 | 10469 ft | 310 kts | 277° |
| 2026-05-01 14:15 | 26.30558 | 50.29205 | 10607 ft | 332 kts | 278° |
| 2026-05-01 14:15 | 26.30930 | 50.26613 | 11010 ft | 342 kts | 278° |
| 2026-05-01 14:15 | 26.31307 | 50.23977 | 11631 ft | 346 kts | 277° |
| 2026-05-01 14:15 | 26.31688 | 50.21307 | 12303 ft | 349 kts | 277° |
| 2026-05-01 14:16 | 26.32063 | 50.18666 | 12967 ft | 351 kts | 277° |
| 2026-05-01 14:16 | 26.32288 | 50.15946 | 13629 ft | 352 kts | 268° |
| 2026-05-01 14:16 | 26.32229 | 50.13208 | 14220 ft | 354 kts | 267° |
| 2026-05-01 14:16 | 26.32170 | 50.10452 | 14798 ft | 357 kts | 267° |
| 2026-05-01 14:17 | 26.32114 | 50.07677 | 15370 ft | 360 kts | 267° |
| 2026-05-01 14:17 | 26.32058 | 50.04880 | 15924 ft | 363 kts | 267° |
| 2026-05-01 14:17 | 26.31998 | 50.02051 | 16475 ft | 366 kts | 267° |
| 2026-05-01 14:17 | 26.31936 | 49.99239 | 17012 ft | 368 kts | 267° |
| 2026-05-01 14:18 | 26.31872 | 49.96376 | 17539 ft | 371 kts | 266° |
| 2026-05-01 14:18 | 26.31808 | 49.93488 | 18063 ft | 374 kts | 266° |
| 2026-05-01 14:18 | 26.31745 | 49.90571 | 18544 ft | 377 kts | 266° |
| 2026-05-01 14:18 | 26.31703 | 49.88634 | 18838 ft | 379 kts | 267° |
| 2026-05-01 14:19 | 26.31612 | 49.84685 | 19432 ft | 382 kts | 267° |
| 2026-05-01 14:19 | 26.31544 | 49.81752 | 19867 ft | 384 kts | 267° |
| 2026-05-01 14:19 | 26.31475 | 49.78763 | 20306 ft | 387 kts | 267° |
| 2026-05-01 14:19 | 26.31405 | 49.75742 | 20746 ft | 389 kts | 267° |
| 2026-05-01 14:20 | 26.31338 | 49.72721 | 21175 ft | 392 kts | 268° |
| 2026-05-01 14:20 | 26.31196 | 49.66613 | 22018 ft | 396 kts | 268° |
| 2026-05-01 14:20 | 26.31119 | 49.63528 | 22428 ft | 399 kts | 268° |
| 2026-05-01 14:21 | 26.31042 | 49.60462 | 22831 ft | 401 kts | 268° |
| 2026-05-01 14:21 | 26.30966 | 49.57342 | 23227 ft | 403 kts | 268° |
| 2026-05-01 14:21 | 26.30889 | 49.54205 | 23577 ft | 406 kts | 268° |
| 2026-05-01 14:22 | 26.30757 | 49.48958 | 24153 ft | 408 kts | 268° |
| 2026-05-01 14:22 | 26.30650 | 49.44753 | 24621 ft | 409 kts | 268° |
| 2026-05-01 14:22 | 26.30571 | 49.41574 | 24975 ft | 410 kts | 268° |
| 2026-05-01 14:22 | 26.30518 | 49.39458 | 25215 ft | 411 kts | 268° |
| 2026-05-01 14:23 | 26.30409 | 49.35221 | 25675 ft | 413 kts | 268° |
| 2026-05-01 14:23 | 26.30324 | 49.32018 | 26019 ft | 413 kts | 268° |
| 2026-05-01 14:23 | 26.30235 | 49.28803 | 26349 ft | 414 kts | 268° |
| 2026-05-01 14:23 | 26.30177 | 49.26672 | 26559 ft | 415 kts | 268° |
| 2026-05-01 14:24 | 26.30092 | 49.23453 | 26879 ft | 416 kts | 268° |
| 2026-05-01 14:24 | 26.30006 | 49.20217 | 27194 ft | 417 kts | 268° |
| 2026-05-01 14:24 | 26.29919 | 49.16982 | 27498 ft | 419 kts | 268° |
| 2026-05-01 14:24 | 26.29826 | 49.13734 | 27812 ft | 420 kts | 268° |
| 2026-05-01 14:25 | 26.29732 | 49.10510 | 28160 ft | 419 kts | 268° |
| 2026-05-01 14:25 | 26.29594 | 49.07260 | 28604 ft | 417 kts | 266° |
| 2026-05-01 14:25 | 26.29379 | 49.04046 | 29051 ft | 415 kts | 265° |
| 2026-05-01 14:25 | 26.29117 | 49.00846 | 29498 ft | 413 kts | 264° |
| 2026-05-01 14:26 | 26.28836 | 48.97667 | 29934 ft | 411 kts | 264° |
| 2026-05-01 14:26 | 26.28294 | 48.91393 | 30698 ft | 406 kts | 264° |
| 2026-05-01 14:26 | 26.28045 | 48.88259 | 31090 ft | 403 kts | 264° |
| 2026-05-01 14:27 | 26.27806 | 48.85157 | 31491 ft | 401 kts | 264° |
| 2026-05-01 14:27 | 26.27569 | 48.82067 | 31890 ft | 398 kts | 264° |
| 2026-05-01 14:27 | 26.27339 | 48.79004 | 32288 ft | 395 kts | 264° |
| 2026-05-01 14:28 | 26.26877 | 48.72976 | 33080 ft | 390 kts | 263° |
| 2026-05-01 14:28 | 26.26640 | 48.69976 | 33473 ft | 387 kts | 263° |
| 2026-05-01 14:28 | 26.26405 | 48.67003 | 33864 ft | 384 kts | 263° |
| 2026-05-01 14:28 | 26.26171 | 48.64041 | 34188 ft | 382 kts | 263° |
| 2026-05-01 14:29 | 26.25937 | 48.61095 | 34461 ft | 381 kts | 263° |
| 2026-05-01 14:29 | 26.25702 | 48.58149 | 34709 ft | 381 kts | 263° |
| 2026-05-01 14:30 | 26.24601 | 48.49446 | 34901 ft | 379 kts | 251° |
| 2026-05-01 14:30 | 26.23570 | 48.46742 | 34901 ft | 379 kts | 246° |
| 2026-05-01 14:31 | 26.20229 | 48.38778 | 34902 ft | 380 kts | 246° |
| 2026-05-01 14:31 | 26.17998 | 48.33430 | 34900 ft | 380 kts | 246° |
| 2026-05-01 14:32 | 26.15766 | 48.28087 | 34907 ft | 380 kts | 246° |
| 2026-05-01 14:32 | 26.13542 | 48.22785 | 34909 ft | 379 kts | 246° |
| 2026-05-01 14:33 | 26.11215 | 48.17501 | 34910 ft | 381 kts | 240° |
| 2026-05-01 14:33 | 26.07937 | 48.12856 | 34910 ft | 384 kts | 234° |
| 2026-05-01 14:34 | 26.04539 | 48.08270 | 34915 ft | 383 kts | 234° |
| 2026-05-01 14:34 | 26.01165 | 48.03725 | 34915 ft | 383 kts | 234° |
| 2026-05-01 14:35 | 25.97764 | 47.99149 | 34913 ft | 383 kts | 234° |
| 2026-05-01 14:35 | 25.94360 | 47.94577 | 34917 ft | 383 kts | 234° |
| 2026-05-01 14:36 | 25.90974 | 47.90040 | 34917 ft | 383 kts | 234° |
| 2026-05-01 14:36 | 25.87570 | 47.85477 | 34918 ft | 383 kts | 234° |
| 2026-05-01 14:37 | 25.84186 | 47.80937 | 34921 ft | 383 kts | 234° |
| 2026-05-01 14:37 | 25.80777 | 47.76375 | 34923 ft | 383 kts | 234° |
| 2026-05-01 14:38 | 25.77367 | 47.71823 | 34929 ft | 384 kts | 234° |
| 2026-05-01 14:38 | 25.73953 | 47.67255 | 34926 ft | 383 kts | 234° |
| 2026-05-01 14:39 | 25.70569 | 47.62725 | 34929 ft | 384 kts | 234° |
| 2026-05-01 14:39 | 25.67158 | 47.58162 | 34931 ft | 384 kts | 234° |
| 2026-05-01 14:40 | 25.63747 | 47.53605 | 34933 ft | 384 kts | 234° |
| 2026-05-01 14:40 | 25.60344 | 47.49072 | 34933 ft | 384 kts | 234° |
| 2026-05-01 14:41 | 25.56919 | 47.44519 | 34933 ft | 384 kts | 234° |
| 2026-05-01 14:41 | 25.53493 | 47.39968 | 34935 ft | 385 kts | 234° |
| 2026-05-01 14:42 | 25.50076 | 47.35431 | 34935 ft | 385 kts | 234° |
| 2026-05-01 14:42 | 25.46659 | 47.30903 | 34938 ft | 385 kts | 234° |
| 2026-05-01 14:43 | 25.43207 | 47.26332 | 34938 ft | 386 kts | 234° |
| 2026-05-01 14:43 | 25.39783 | 47.21800 | 34943 ft | 386 kts | 234° |
| 2026-05-01 14:44 | 25.36335 | 47.17234 | 34941 ft | 386 kts | 234° |
| 2026-05-01 14:44 | 25.31158 | 47.10399 | 34943 ft | 386 kts | 234° |
| 2026-05-01 14:45 | 25.25988 | 47.03588 | 34944 ft | 387 kts | 233° |
| 2026-05-01 14:46 | 25.22521 | 46.99029 | 34943 ft | 387 kts | 234° |
| 2026-05-01 14:46 | 25.17345 | 46.92216 | 34948 ft | 387 kts | 234° |
| 2026-05-01 14:47 | 25.13876 | 46.87657 | 34946 ft | 387 kts | 234° |
| 2026-05-01 14:48 | 25.08685 | 46.80849 | 34947 ft | 388 kts | 233° |
| 2026-05-01 14:48 | 25.03471 | 46.74013 | 34950 ft | 388 kts | 233° |
| 2026-05-01 14:49 | 24.96772 | 46.64723 | 34946 ft | 386 kts | 240° |
| 2026-05-01 14:50 | 24.90972 | 46.54749 | 34947 ft | 386 kts | 239° |
| 2026-05-01 14:51 | 24.86626 | 46.47315 | 34948 ft | 386 kts | 239° |
| 2026-05-01 14:52 | 24.82283 | 46.39880 | 34943 ft | 386 kts | 239° |
| 2026-05-01 14:53 | 24.77922 | 46.32419 | 34941 ft | 385 kts | 239° |
| 2026-05-01 14:53 | 24.75035 | 46.27480 | 34941 ft | 385 kts | 239° |
| 2026-05-01 14:54 | 24.72127 | 46.22511 | 34940 ft | 386 kts | 239° |
| 2026-05-01 14:54 | 24.69212 | 46.17542 | 34934 ft | 386 kts | 239° |
| 2026-05-01 14:55 | 24.66311 | 46.12612 | 34931 ft | 386 kts | 239° |
| 2026-05-01 14:55 | 24.63379 | 46.07642 | 34931 ft | 387 kts | 239° |
| 2026-05-01 14:56 | 24.60451 | 46.02663 | 34926 ft | 387 kts | 239° |
| 2026-05-01 14:56 | 24.57540 | 45.97718 | 34922 ft | 388 kts | 239° |
| 2026-05-01 14:57 | 24.54606 | 45.92744 | 34921 ft | 388 kts | 239° |
| 2026-05-01 14:57 | 24.50200 | 45.85283 | 34918 ft | 388 kts | 239° |
| 2026-05-01 14:58 | 24.47254 | 45.80302 | 34917 ft | 388 kts | 239° |
| 2026-05-01 14:58 | 24.44515 | 45.75247 | 34916 ft | 386 kts | 245° |
| 2026-05-01 14:59 | 24.42170 | 45.69940 | 34914 ft | 386 kts | 245° |
| 2026-05-01 14:59 | 24.39812 | 45.64637 | 34915 ft | 386 kts | 245° |
| 2026-05-01 15:00 | 24.36285 | 45.56716 | 34904 ft | 387 kts | 245° |
| 2026-05-01 15:01 | 24.33920 | 45.51410 | 34912 ft | 387 kts | 245° |
| 2026-05-01 15:01 | 24.31567 | 45.46135 | 34914 ft | 387 kts | 245° |
| 2026-05-01 15:02 | 24.29195 | 45.40828 | 34909 ft | 388 kts | 245° |
| 2026-05-01 15:02 | 24.26811 | 45.35505 | 34909 ft | 388 kts | 245° |
| 2026-05-01 15:03 | 24.24443 | 45.30213 | 34910 ft | 388 kts | 245° |
| 2026-05-01 15:03 | 24.22064 | 45.24891 | 34908 ft | 388 kts | 245° |
| 2026-05-01 15:04 | 24.19683 | 45.19581 | 34909 ft | 388 kts | 245° |
| 2026-05-01 15:04 | 24.17310 | 45.14305 | 34913 ft | 388 kts | 245° |
| 2026-05-01 15:05 | 24.14921 | 45.08992 | 34913 ft | 388 kts | 245° |
| 2026-05-01 15:05 | 24.12531 | 45.03687 | 34912 ft | 388 kts | 245° |
| 2026-05-01 15:06 | 24.10156 | 44.98418 | 34914 ft | 388 kts | 245° |
| 2026-05-01 15:06 | 24.07765 | 44.93112 | 34917 ft | 388 kts | 245° |
| 2026-05-01 15:07 | 24.05365 | 44.87813 | 34916 ft | 389 kts | 245° |
| 2026-05-01 15:07 | 24.02958 | 44.82513 | 34917 ft | 389 kts | 245° |
| 2026-05-01 15:08 | 24.00566 | 44.77241 | 34919 ft | 389 kts | 245° |
| 2026-05-01 15:08 | 23.98157 | 44.71928 | 34920 ft | 389 kts | 245° |
| 2026-05-01 15:09 | 23.95762 | 44.66651 | 34923 ft | 389 kts | 245° |
| 2026-05-01 15:09 | 23.93352 | 44.61340 | 34920 ft | 390 kts | 246° |
| 2026-05-01 15:10 | 23.91749 | 44.55722 | 34921 ft | 388 kts | 257° |
| 2026-05-01 15:10 | 23.89912 | 44.47056 | 34921 ft | 396 kts | 256° |
| 2026-05-01 15:11 | 23.88005 | 44.38151 | 34922 ft | 405 kts | 256° |
| 2026-05-01 15:12 | 23.86722 | 44.32133 | 34920 ft | 406 kts | 256° |
| 2026-05-01 15:12 | 23.84799 | 44.23146 | 34919 ft | 406 kts | 256° |
| 2026-05-01 15:14 | 23.81566 | 44.08170 | 34912 ft | 406 kts | 256° |
| 2026-05-01 15:14 | 23.79617 | 43.99160 | 34914 ft | 406 kts | 256° |
| 2026-05-01 15:15 | 23.77024 | 43.87189 | 34922 ft | 406 kts | 256° |
| 2026-05-01 15:16 | 23.74391 | 43.75196 | 34926 ft | 406 kts | 256° |
| 2026-05-01 15:18 | 23.71102 | 43.60257 | 34936 ft | 406 kts | 256° |
| 2026-05-01 15:19 | 23.68469 | 43.48314 | 34939 ft | 406 kts | 256° |
| 2026-05-01 15:19 | 23.66472 | 43.39337 | 34942 ft | 406 kts | 256° |
| 2026-05-01 15:20 | 23.64477 | 43.30384 | 34947 ft | 406 kts | 256° |
| 2026-05-01 15:21 | 23.63363 | 43.25393 | 34947 ft | 406 kts | 256° |
| 2026-05-01 15:21 | 23.62014 | 43.19383 | 34951 ft | 406 kts | 256° |
| 2026-05-01 15:22 | 23.60019 | 43.10427 | 34957 ft | 407 kts | 256° |
| 2026-05-01 15:22 | 23.58675 | 43.04435 | 34957 ft | 407 kts | 256° |
| 2026-05-01 15:23 | 23.57327 | 42.98474 | 34958 ft | 407 kts | 256° |
| 2026-05-01 15:23 | 23.55974 | 42.92474 | 34962 ft | 407 kts | 256° |
| 2026-05-01 15:24 | 23.54625 | 42.86502 | 34955 ft | 407 kts | 256° |
| 2026-05-01 15:24 | 23.53266 | 42.80500 | 34964 ft | 407 kts | 256° |
| 2026-05-01 15:25 | 23.51917 | 42.74526 | 34961 ft | 407 kts | 256° |
| 2026-05-01 15:25 | 23.50556 | 42.68526 | 34962 ft | 408 kts | 256° |
| 2026-05-01 15:26 | 23.49186 | 42.62530 | 34954 ft | 408 kts | 256° |
| 2026-05-01 15:26 | 23.47828 | 42.56562 | 34959 ft | 408 kts | 256° |
| 2026-05-01 15:27 | 23.46465 | 42.50554 | 34963 ft | 408 kts | 256° |
| 2026-05-01 15:28 | 23.44403 | 42.41542 | 34959 ft | 408 kts | 256° |
| 2026-05-01 15:28 | 23.43025 | 42.35557 | 34960 ft | 409 kts | 256° |
| 2026-05-01 15:29 | 23.40948 | 42.26540 | 34957 ft | 409 kts | 256° |
| 2026-05-01 15:30 | 23.38190 | 42.14551 | 34960 ft | 409 kts | 256° |
| 2026-05-01 15:31 | 23.34007 | 41.96544 | 34958 ft | 410 kts | 256° |
| 2026-05-01 15:32 | 23.31225 | 41.84544 | 34959 ft | 410 kts | 256° |
| 2026-05-01 15:34 | 23.25470 | 41.67168 | 34976 ft | 414 kts | 240° |